Time;durP1;ratioP1;P1;durP2;ratioP2;P2;SDS_P1;SDS_P2;PMS_P1;PMS_P2;Temp;Humidity;BMP_temperature;BMP_pressure;BME280_temperature;BME280_humidity;BME280_pressure;Samples;Min_cycle;Max_cycle;Signal;HPM_P1;HPM_P2
2024/01/31 00:01:06;;;;;;;20.38;15.75;;;;;;;;;;5015029;28;20082;-83
2024/01/31 00:03:32;;;;;;;23.90;14.77;;;;;;;;;;5002517;28;20041;-83
2024/01/31 00:05:58;;;;;;;22.90;15.98;;;;;;;;;;5005791;28;20037;-83
2024/01/31 00:08:24;;;;;;;20.73;15.38;;;;;;;;;;4985576;28;20526;-83
2024/01/31 00:10:50;;;;;;;22.75;14.80;;;;;;;;;;5006736;28;20507;-83
2024/01/31 00:13:15;;;;;;;18.63;15.02;;;;;;;;;;5020178;28;20037;-83
2024/01/31 00:15:41;;;;;;;22.45;15.00;;;;;;;;;;4999303;28;20041;-83
2024/01/31 00:18:07;;;;;;;24.55;15.25;;;;;;;;;;5018885;28;20034;-83
2024/01/31 00:20:32;;;;;;;28.20;18.13;;;;;;;;;;5017018;28;20519;-82
2024/01/31 00:22:58;;;;;;;28.42;18.10;;;;;;;;;;5015673;28;20514;-83
2024/01/31 00:25:23;;;;;;;22.60;16.35;;;;;;;;;;5018130;28;20037;-83
2024/01/31 00:27:50;;;;;;;26.95;17.67;;;;;;;;;;5013592;28;20057;-82
2024/01/31 00:30:17;;;;;;;23.35;17.60;;;;;;;;;;5002350;28;20537;-86
2024/01/31 00:32:42;;;;;;;22.50;15.43;;;;;;;;;;5003952;28;20045;-86
2024/01/31 00:35:08;;;;;;;24.85;16.10;;;;;;;;;;4968969;28;20102;-86
2024/01/31 00:37:34;;;;;;;22.00;15.73;;;;;;;;;;4985402;28;20041;-87
2024/01/31 00:39:59;;;;;;;24.05;16.23;;;;;;;;;;5019027;28;20217;-87
2024/01/31 00:42:25;;;;;;;23.52;15.38;;;;;;;;;;4999216;28;20830;-87
2024/01/31 00:44:50;;;;;;;24.20;15.38;;;;;;;;;;5005163;28;20045;-86
2024/01/31 00:47:16;;;;;;;22.85;15.60;;;;;;;;;;5021082;28;20094;-85
2024/01/31 00:49:42;;;;;;;25.50;15.93;;;;;;;;;;5004468;28;20140;-85
2024/01/31 00:52:07;;;;;;;18.95;14.93;;;;;;;;;;5021756;28;20037;-86
2024/01/31 00:54:33;;;;;;;23.52;15.55;;;;;;;;;;5010147;28;20099;-86
2024/01/31 00:56:58;;;;;;;22.83;15.75;;;;;;;;;;5026228;28;20037;-86
2024/01/31 00:59:24;;;;;;;19.20;13.82;;;;;;;;;;5004952;28;20045;-85
2024/01/31 01:01:50;;;;;;;26.80;15.30;;;;;;;;;;5010063;28;20625;-85
2024/01/31 01:04:16;;;;;;;20.42;15.10;;;;;;;;;;5024571;28;20154;-86
2024/01/31 01:06:41;;;;;;;27.80;16.35;;;;;;;;;;5005114;28;20138;-86
2024/01/31 01:09:07;;;;;;;22.38;16.23;;;;;;;;;;4991198;28;20072;-85
2024/01/31 01:11:32;;;;;;;26.98;16.65;;;;;;;;;;4970022;28;20053;-86
2024/01/31 01:13:58;;;;;;;23.45;15.93;;;;;;;;;;5008828;28;20487;-86
2024/01/31 01:16:23;;;;;;;27.08;16.38;;;;;;;;;;5009561;28;20526;-86
2024/01/31 01:18:49;;;;;;;25.92;16.83;;;;;;;;;;5011238;28;20392;-86
2024/01/31 01:21:14;;;;;;;26.67;15.95;;;;;;;;;;5022631;28;20749;-86
2024/01/31 01:23:40;;;;;;;23.50;15.93;;;;;;;;;;5016334;28;20849;-86
2024/01/31 01:26:06;;;;;;;27.23;16.27;;;;;;;;;;5001104;28;20126;-86
2024/01/31 01:28:31;;;;;;;24.05;15.57;;;;;;;;;;5019535;28;20249;-85
2024/01/31 01:30:57;;;;;;;22.77;15.75;;;;;;;;;;5006883;28;20038;-86
2024/01/31 01:33:22;;;;;;;26.20;17.38;;;;;;;;;;5005769;28;20107;-86
2024/01/31 01:35:48;;;;;;;23.25;17.23;;;;;;;;;;5007825;28;20749;-86
2024/01/31 01:38:13;;;;;;;21.92;16.55;;;;;;;;;;5026176;28;20041;-86
2024/01/31 01:40:45;;;;;;;24.83;16.13;;;;;;;;;;4990876;28;20041;-85
2024/01/31 01:43:16;;;;;;;21.58;14.48;;;;;;;;;;5003485;28;20037;-86
2024/01/31 01:45:41;;;;;;;21.80;15.00;;;;;;;;;;5010574;28;20555;-86
2024/01/31 01:48:07;;;;;;;20.90;14.57;;;;;;;;;;5018878;28;20036;-86
2024/01/31 01:50:32;;;;;;;24.33;14.82;;;;;;;;;;5020105;28;20116;-86
2024/01/31 01:52:58;;;;;;;21.05;15.30;;;;;;;;;;5022740;28;20108;-85
2024/01/31 01:55:24;;;;;;;24.83;15.30;;;;;;;;;;5017479;28;20025;-86
2024/01/31 01:57:49;;;;;;;27.80;16.17;;;;;;;;;;4990912;28;20041;-86
2024/01/31 02:00:16;;;;;;;21.75;15.73;;;;;;;;;;5011162;28;20029;-86
2024/01/31 02:02:42;;;;;;;21.60;14.75;;;;;;;;;;5005170;28;20045;-86
2024/01/31 02:05:08;;;;;;;20.70;14.88;;;;;;;;;;4988568;28;20048;-86
2024/01/31 02:07:34;;;;;;;22.98;15.10;;;;;;;;;;5020465;28;20044;-86
2024/01/31 02:10:00;;;;;;;19.90;15.15;;;;;;;;;;5007325;28;20033;-85
2024/01/31 02:12:26;;;;;;;22.13;15.02;;;;;;;;;;5019188;28;20029;-86
2024/01/31 02:14:52;;;;;;;23.77;14.73;;;;;;;;;;5009010;28;20259;-85
2024/01/31 02:17:18;;;;;;;21.10;14.30;;;;;;;;;;5009696;28;20298;-85
2024/01/31 02:19:44;;;;;;;16.70;13.93;;;;;;;;;;5022703;28;20039;-86
2024/01/31 02:22:19;;;;;;;18.23;13.85;;;;;;;;;;4986863;28;20037;-85
2024/01/31 02:24:45;;;;;;;18.42;14.18;;;;;;;;;;5020482;28;20080;-85
2024/01/31 02:27:11;;;;;;;21.30;13.63;;;;;;;;;;5012159;28;20040;-85
2024/01/31 02:29:38;;;;;;;21.13;13.48;;;;;;;;;;4974811;28;20037;-85
2024/01/31 02:32:04;;;;;;;17.20;14.32;;;;;;;;;;5020067;28;20788;-85
2024/01/31 02:34:30;;;;;;;21.25;13.43;;;;;;;;;;5006096;28;20132;-86
2024/01/31 02:36:56;;;;;;;19.95;13.35;;;;;;;;;;5011146;28;20048;-86
2024/01/31 02:39:22;;;;;;;16.77;13.13;;;;;;;;;;5026733;28;20671;-85
2024/01/31 02:41:47;;;;;;;19.23;13.05;;;;;;;;;;4995793;28;20053;-85
2024/01/31 02:44:13;;;;;;;16.00;12.10;;;;;;;;;;4995994;28;20112;-86
2024/01/31 02:46:38;;;;;;;19.38;13.45;;;;;;;;;;4989436;28;20076;-86
2024/01/31 02:49:04;;;;;;;20.95;13.00;;;;;;;;;;5006796;28;20045;-86
2024/01/31 02:51:30;;;;;;;17.52;12.60;;;;;;;;;;5006765;28;20041;-86
2024/01/31 02:53:55;;;;;;;16.60;12.75;;;;;;;;;;5022813;28;20030;-86
2024/01/31 02:56:21;;;;;;;18.30;12.32;;;;;;;;;;5012418;28;20037;-86
2024/01/31 02:58:46;;;;;;;16.58;13.40;;;;;;;;;;4993495;28;20048;-85
2024/01/31 03:01:12;;;;;;;19.35;13.85;;;;;;;;;;5026444;28;20519;-86
2024/01/31 03:03:37;;;;;;;18.40;12.82;;;;;;;;;;5007857;28;20186;-86
2024/01/31 03:06:03;;;;;;;18.15;14.23;;;;;;;;;;5011743;28;20652;-86
2024/01/31 03:08:29;;;;;;;23.23;14.00;;;;;;;;;;5025658;28;20029;-86
2024/01/31 03:10:54;;;;;;;18.67;14.15;;;;;;;;;;5013660;28;20037;-86
2024/01/31 03:13:20;;;;;;;18.35;14.02;;;;;;;;;;5011744;28;20380;-86
2024/01/31 03:15:45;;;;;;;18.38;14.23;;;;;;;;;;5022910;28;20076;-86
2024/01/31 03:18:11;;;;;;;18.00;13.77;;;;;;;;;;5014416;28;20033;-86
2024/01/31 03:20:36;;;;;;;23.73;13.88;;;;;;;;;;4996902;28;20033;-83
2024/01/31 03:23:02;;;;;;;19.02;14.45;;;;;;;;;;5003196;28;20393;-83
2024/01/31 03:25:28;;;;;;;18.90;13.45;;;;;;;;;;4992739;28;20899;-83
2024/01/31 03:27:53;;;;;;;21.10;14.38;;;;;;;;;;5021299;28;20037;-83
2024/01/31 03:30:19;;;;;;;18.73;15.30;;;;;;;;;;5021462;28;20071;-82
2024/01/31 03:32:46;;;;;;;21.40;14.57;;;;;;;;;;5004797;28;21050;-82
2024/01/31 03:35:11;;;;;;;16.25;13.57;;;;;;;;;;4995662;28;20069;-83
2024/01/31 03:37:37;;;;;;;13.25;11.05;;;;;;;;;;5010417;28;20507;-82
2024/01/31 03:40:06;;;;;;;19.58;13.05;;;;;;;;;;5023896;28;20037;-86
2024/01/31 03:42:32;;;;;;;20.77;13.48;;;;;;;;;;4991930;28;20141;-85
2024/01/31 03:44:58;;;;;;;16.02;12.82;;;;;;;;;;5003235;28;20770;-86
2024/01/31 03:47:24;;;;;;;13.43;10.45;;;;;;;;;;5031332;28;20032;-86
2024/01/31 03:49:51;;;;;;;18.40;13.32;;;;;;;;;;5002693;28;20075;-86
2024/01/31 03:52:17;;;;;;;14.52;12.55;;;;;;;;;;5028723;28;20506;-86
2024/01/31 03:54:43;;;;;;;18.90;13.48;;;;;;;;;;4989693;28;20038;-86
2024/01/31 03:57:08;;;;;;;17.83;12.50;;;;;;;;;;4990812;28;20033;-86
2024/01/31 03:59:34;;;;;;;14.05;11.48;;;;;;;;;;5004128;28;20861;-86
2024/01/31 04:01:59;;;;;;;15.55;12.18;;;;;;;;;;5010021;28;20041;-87
2024/01/31 04:04:25;;;;;;;18.55;15.48;;;;;;;;;;5007050;28;20029;-86
2024/01/31 04:06:51;;;;;;;16.70;14.32;;;;;;;;;;5014705;28;20206;-86
2024/01/31 04:09:17;;;;;;;15.55;12.80;;;;;;;;;;5027705;28;20115;-86
2024/01/31 04:11:42;;;;;;;17.48;12.57;;;;;;;;;;5002733;28;20080;-86
2024/01/31 04:14:08;;;;;;;16.40;12.05;;;;;;;;;;4992888;28;20041;-86
2024/01/31 04:16:33;;;;;;;16.35;12.68;;;;;;;;;;5008471;28;20479;-86
2024/01/31 04:18:59;;;;;;;15.85;12.23;;;;;;;;;;4990483;28;20079;-86
2024/01/31 04:21:24;;;;;;;15.05;11.95;;;;;;;;;;4987596;28;20460;-86
2024/01/31 04:23:50;;;;;;;16.48;12.00;;;;;;;;;;5019708;28;20799;-86
2024/01/31 04:26:16;;;;;;;16.63;12.40;;;;;;;;;;4993187;28;20040;-86
2024/01/31 04:28:41;;;;;;;13.15;11.02;;;;;;;;;;4986847;28;20040;-86
2024/01/31 04:31:14;;;;;;;13.85;12.45;;;;;;;;;;5005806;28;20102;-86
2024/01/31 04:33:40;;;;;;;18.80;13.98;;;;;;;;;;5012992;28;20041;-86
2024/01/31 04:36:06;;;;;;;20.63;16.08;;;;;;;;;;5029976;28;20113;-86
2024/01/31 04:38:32;;;;;;;23.80;16.98;;;;;;;;;;5008866;28;20041;-86
2024/01/31 04:40:57;;;;;;;20.98;16.02;;;;;;;;;;5006951;28;20447;-86
2024/01/31 04:43:23;;;;;;;17.35;13.75;;;;;;;;;;5021564;28;20573;-86
2024/01/31 04:45:48;;;;;;;19.10;13.45;;;;;;;;;;5027279;28;20408;-86
2024/01/31 04:48:14;;;;;;;15.18;12.18;;;;;;;;;;5008468;28;20021;-87
2024/01/31 04:50:40;;;;;;;17.13;12.50;;;;;;;;;;5020597;28;20025;-86
2024/01/31 04:53:05;;;;;;;13.35;11.32;;;;;;;;;;5029291;28;20048;-86
2024/01/31 04:55:31;;;;;;;17.60;12.60;;;;;;;;;;5013423;28;20041;-86
2024/01/31 04:57:57;;;;;;;17.63;12.63;;;;;;;;;;5009720;28;20037;-87
2024/01/31 05:00:23;;;;;;;17.42;13.43;;;;;;;;;;5002225;28;20057;-86
2024/01/31 05:02:50;;;;;;;17.33;12.73;;;;;;;;;;4995402;28;20069;-86
2024/01/31 05:05:15;;;;;;;17.13;13.73;;;;;;;;;;5012454;28;20033;-87
2024/01/31 05:07:41;;;;;;;15.25;12.88;;;;;;;;;;4974932;28;20572;-86
2024/01/31 05:10:07;;;;;;;14.55;12.95;;;;;;;;;;5012325;28;20040;-86
2024/01/31 05:12:33;;;;;;;18.65;13.32;;;;;;;;;;4995137;28;20523;-86
2024/01/31 05:14:58;;;;;;;16.48;13.07;;;;;;;;;;5024330;28;20073;-86
2024/01/31 05:17:24;;;;;;;21.77;13.40;;;;;;;;;;5020496;28;20037;-86
2024/01/31 05:19:49;;;;;;;14.15;12.65;;;;;;;;;;4987739;28;20128;-86
2024/01/31 05:22:15;;;;;;;16.73;12.85;;;;;;;;;;5021772;28;20450;-86
2024/01/31 05:24:41;;;;;;;17.55;13.07;;;;;;;;;;5016137;28;20041;-86
2024/01/31 05:27:08;;;;;;;25.00;16.05;;;;;;;;;;5003218;28;20036;-86
2024/01/31 05:29:34;;;;;;;31.13;19.95;;;;;;;;;;5021379;28;20033;-86
2024/01/31 05:32:00;;;;;;;24.98;17.42;;;;;;;;;;4990454;28;20055;-85
2024/01/31 05:34:26;;;;;;;27.20;17.95;;;;;;;;;;5006454;28;20512;-86
2024/01/31 05:36:52;;;;;;;25.50;15.75;;;;;;;;;;5026952;28;20037;-86
2024/01/31 05:39:17;;;;;;;15.43;13.10;;;;;;;;;;5014876;28;20479;-86
2024/01/31 05:41:43;;;;;;;15.70;12.27;;;;;;;;;;4992502;28;20036;-86
2024/01/31 05:44:10;;;;;;;17.13;13.27;;;;;;;;;;5006841;28;20674;-86
2024/01/31 05:46:36;;;;;;;17.48;13.48;;;;;;;;;;5001241;28;20087;-86
2024/01/31 05:49:02;;;;;;;16.00;12.90;;;;;;;;;;5009127;28;20061;-86
2024/01/31 05:51:28;;;;;;;17.52;13.30;;;;;;;;;;5003954;28;20041;-86
2024/01/31 05:53:54;;;;;;;16.02;12.77;;;;;;;;;;4993322;28;20037;-86
2024/01/31 05:56:20;;;;;;;22.42;13.70;;;;;;;;;;5004558;28;20041;-86
2024/01/31 05:58:45;;;;;;;15.30;12.80;;;;;;;;;;4993688;28;20114;-85
2024/01/31 06:01:11;;;;;;;15.73;12.75;;;;;;;;;;4996540;28;20502;-86
2024/01/31 06:03:37;;;;;;;16.10;13.73;;;;;;;;;;4991168;28;20037;-86
2024/01/31 06:06:02;;;;;;;14.13;12.68;;;;;;;;;;5019028;28;20041;-87
2024/01/31 06:08:28;;;;;;;16.83;13.93;;;;;;;;;;4989635;28;20052;-86
2024/01/31 06:11:02;;;;;;;14.93;13.40;;;;;;;;;;5008767;28;20041;-85
2024/01/31 06:13:29;;;;;;;17.60;13.90;;;;;;;;;;5015007;28;21149;-86
2024/01/31 06:15:54;;;;;;;15.27;12.93;;;;;;;;;;5002700;28;20120;-86
2024/01/31 06:18:22;;;;;;;15.52;13.68;;;;;;;;;;5011868;28;20116;-86
2024/01/31 06:20:48;;;;;;;17.95;13.68;;;;;;;;;;5017677;28;20115;-86
2024/01/31 06:23:14;;;;;;;15.68;13.88;;;;;;;;;;4975714;28;20037;-86
2024/01/31 06:25:39;;;;;;;15.32;12.90;;;;;;;;;;4994536;28;20048;-86
2024/01/31 06:28:08;;;;;;;15.38;13.48;;;;;;;;;;5000549;28;20040;-86
2024/01/31 06:30:41;;;;;;;14.75;13.00;;;;;;;;;;5001847;28;20644;-86
2024/01/31 06:33:07;;;;;;;16.15;13.65;;;;;;;;;;4985680;28;20521;-86
2024/01/31 06:35:34;;;;;;;17.20;13.50;;;;;;;;;;5001188;28;20184;-86
2024/01/31 06:37:59;;;;;;;18.40;13.68;;;;;;;;;;5015483;28;20042;-86
2024/01/31 06:40:25;;;;;;;16.70;13.23;;;;;;;;;;4988960;28;20044;-86
2024/01/31 06:42:51;;;;;;;14.77;12.60;;;;;;;;;;5010425;28;20053;-86
2024/01/31 06:45:17;;;;;;;14.57;12.75;;;;;;;;;;4991474;28;20125;-86
2024/01/31 06:47:43;;;;;;;18.00;13.98;;;;;;;;;;4994690;28;20128;-86
2024/01/31 06:50:10;;;;;;;16.10;13.73;;;;;;;;;;5006890;28;20045;-86
2024/01/31 06:52:36;;;;;;;14.77;13.18;;;;;;;;;;5008055;28;20041;-85
2024/01/31 06:55:04;;;;;;;14.48;12.98;;;;;;;;;;4998439;28;20126;-85
2024/01/31 06:57:31;;;;;;;15.50;13.90;;;;;;;;;;4993167;28;20029;-86
2024/01/31 06:59:57;;;;;;;18.73;13.75;;;;;;;;;;5017184;28;20136;-86
2024/01/31 07:02:23;;;;;;;15.55;13.88;;;;;;;;;;5023996;28;20116;-86
2024/01/31 07:04:48;;;;;;;18.27;14.25;;;;;;;;;;4980510;28;20041;-86
2024/01/31 07:07:14;;;;;;;17.83;14.10;;;;;;;;;;5020487;28;20040;-86
2024/01/31 07:09:40;;;;;;;17.40;14.20;;;;;;;;;;4996796;28;20797;-86
2024/01/31 07:12:05;;;;;;;18.88;14.20;;;;;;;;;;5002035;28;20037;-86
2024/01/31 07:14:31;;;;;;;23.55;15.73;;;;;;;;;;5032218;28;20045;-86
2024/01/31 07:16:56;;;;;;;20.67;14.23;;;;;;;;;;5024442;28;20037;-86
2024/01/31 07:19:22;;;;;;;26.77;14.68;;;;;;;;;;4997301;28;20053;-86
2024/01/31 07:21:48;;;;;;;20.50;14.57;;;;;;;;;;5005063;28;20045;-85
2024/01/31 07:24:13;;;;;;;22.02;15.52;;;;;;;;;;5011012;28;20029;-85
2024/01/31 07:26:39;;;;;;;20.85;15.32;;;;;;;;;;4995967;28;20108;-86
2024/01/31 07:29:08;;;;;;;20.48;16.00;;;;;;;;;;5012998;28;20067;-86
2024/01/31 07:31:34;;;;;;;15.93;14.23;;;;;;;;;;5027581;28;20087;-86
2024/01/31 07:33:59;;;;;;;22.58;16.30;;;;;;;;;;5024109;28;20690;-86
2024/01/31 07:36:25;;;;;;;18.48;14.60;;;;;;;;;;5008937;28;20119;-86
2024/01/31 07:38:51;;;;;;;21.33;14.27;;;;;;;;;;5007417;28;20076;-85
2024/01/31 07:41:16;;;;;;;18.88;13.77;;;;;;;;;;4993155;28;20045;-85
2024/01/31 07:43:42;;;;;;;18.25;14.05;;;;;;;;;;4980403;28;20041;-85
2024/01/31 07:46:08;;;;;;;18.70;14.60;;;;;;;;;;5015169;28;20526;-85
2024/01/31 07:48:35;;;;;;;18.30;14.45;;;;;;;;;;5011644;28;20037;-86
2024/01/31 07:51:05;;;;;;;18.05;14.27;;;;;;;;;;4974976;28;20043;-84
2024/01/31 07:53:31;;;;;;;15.48;13.43;;;;;;;;;;5008438;28;20041;-85
2024/01/31 07:55:57;;;;;;;16.88;14.25;;;;;;;;;;5000183;28;20506;-85
2024/01/31 07:58:23;;;;;;;19.48;15.77;;;;;;;;;;4990537;28;20045;-86
2024/01/31 08:00:48;;;;;;;21.00;15.13;;;;;;;;;;4992943;28;20041;-85
2024/01/31 08:03:14;;;;;;;18.30;15.80;;;;;;;;;;5011859;28;20499;-85
2024/01/31 08:05:39;;;;;;;17.75;14.57;;;;;;;;;;4999863;28;20044;-85
2024/01/31 08:08:05;;;;;;;18.52;14.82;;;;;;;;;;5014683;28;20080;-85
2024/01/31 08:10:31;;;;;;;20.70;15.23;;;;;;;;;;4997410;28;20037;-86
2024/01/31 08:12:57;;;;;;;18.98;14.82;;;;;;;;;;4992296;28;20038;-85
2024/01/31 08:15:24;;;;;;;21.23;14.70;;;;;;;;;;5012865;28;20099;-86
2024/01/31 08:17:50;;;;;;;16.40;14.13;;;;;;;;;;5012792;28;20037;-86
2024/01/31 08:20:16;;;;;;;17.63;14.88;;;;;;;;;;5012953;28;20048;-85
2024/01/31 08:22:42;;;;;;;23.25;16.58;;;;;;;;;;5006345;28;20360;-85
2024/01/31 08:25:08;;;;;;;19.30;16.30;;;;;;;;;;5010712;28;20503;-85
2024/01/31 08:27:34;;;;;;;26.92;15.63;;;;;;;;;;5028165;28;20045;-85
2024/01/31 08:29:59;;;;;;;17.55;15.20;;;;;;;;;;5013993;28;20460;-86
2024/01/31 08:32:25;;;;;;;23.23;15.80;;;;;;;;;;4975097;28;20742;-85
2024/01/31 08:34:50;;;;;;;17.73;14.20;;;;;;;;;;5029208;28;20638;-85
2024/01/31 08:37:17;;;;;;;16.27;14.52;;;;;;;;;;4992982;28;20044;-85
2024/01/31 08:39:43;;;;;;;17.00;14.50;;;;;;;;;;4994856;28;20080;-86
2024/01/31 08:42:09;;;;;;;19.15;14.23;;;;;;;;;;5014318;28;20634;-86
2024/01/31 08:44:35;;;;;;;18.88;15.25;;;;;;;;;;5026293;28;20569;-85
2024/01/31 08:47:00;;;;;;;17.77;14.52;;;;;;;;;;5006701;28;20049;-85
2024/01/31 08:49:26;;;;;;;18.58;13.65;;;;;;;;;;5010864;28;20037;-85
2024/01/31 08:51:53;;;;;;;18.70;14.20;;;;;;;;;;5023958;28;20037;-85
2024/01/31 08:54:20;;;;;;;19.85;13.82;;;;;;;;;;5003614;28;20041;-86
2024/01/31 08:56:46;;;;;;;18.67;13.85;;;;;;;;;;5012986;28;20037;-85
2024/01/31 08:59:12;;;;;;;18.23;14.15;;;;;;;;;;4979858;28;20037;-85
2024/01/31 09:01:45;;;;;;;16.85;14.77;;;;;;;;;;5014713;28;20037;-85
2024/01/31 09:04:12;;;;;;;23.20;18.17;;;;;;;;;;5021291;28;20088;-86
2024/01/31 09:06:39;;;;;;;28.30;17.70;;;;;;;;;;5008449;28;20042;-84
2024/01/31 09:09:06;;;;;;;19.85;16.42;;;;;;;;;;5022195;28;20063;-86
2024/01/31 09:11:32;;;;;;;17.73;15.82;;;;;;;;;;5005407;28;20112;-85
2024/01/31 09:13:58;;;;;;;21.55;16.70;;;;;;;;;;5016900;28;20578;-86
2024/01/31 09:16:23;;;;;;;18.98;16.58;;;;;;;;;;5005440;28;20133;-86
2024/01/31 09:18:49;;;;;;;18.75;16.38;;;;;;;;;;5026320;28;20111;-85
2024/01/31 09:21:26;;;;;;;17.77;15.68;;;;;;;;;;5026538;28;20116;-86
2024/01/31 09:23:52;;;;;;;17.60;14.93;;;;;;;;;;5034397;28;20532;-86
2024/01/31 09:26:17;;;;;;;18.60;14.48;;;;;;;;;;5010388;28;20029;-85
2024/01/31 09:28:43;;;;;;;17.55;15.05;;;;;;;;;;5035078;28;20122;-86
2024/01/31 09:31:09;;;;;;;20.05;15.00;;;;;;;;;;5012639;28;20493;-85
2024/01/31 09:33:34;;;;;;;18.25;14.30;;;;;;;;;;5012231;28;20079;-86
2024/01/31 09:36:00;;;;;;;18.98;15.07;;;;;;;;;;5012813;28;20041;-86
2024/01/31 09:38:26;;;;;;;21.23;16.08;;;;;;;;;;5011223;28;20068;-86
2024/01/31 09:40:52;;;;;;;18.75;16.08;;;;;;;;;;5035207;28;20041;-86
2024/01/31 09:43:21;;;;;;;19.90;15.75;;;;;;;;;;5023527;28;20488;-86
2024/01/31 09:45:51;;;;;;;18.85;14.55;;;;;;;;;;5029486;28;20423;-86
2024/01/31 09:48:18;;;;;;;15.20;13.38;;;;;;;;;;5023706;28;20046;-85
2024/01/31 09:50:43;;;;;;;16.08;14.18;;;;;;;;;;5024204;28;20045;-85
2024/01/31 09:53:10;;;;;;;14.43;12.80;;;;;;;;;;5015831;28;20034;-85
2024/01/31 09:55:36;;;;;;;21.50;14.95;;;;;;;;;;5019205;28;20435;-86
2024/01/31 09:58:02;;;;;;;17.90;14.60;;;;;;;;;;5018344;28;20037;-85
2024/01/31 10:00:29;;;;;;;22.77;15.82;;;;;;;;;;4995042;28;20033;-85
2024/01/31 10:02:55;;;;;;;20.30;15.27;;;;;;;;;;5008856;28;20124;-86
2024/01/31 10:05:21;;;;;;;17.60;15.07;;;;;;;;;;5028825;28;20129;-85
2024/01/31 10:07:47;;;;;;;20.90;15.45;;;;;;;;;;5005782;28;20136;-85
2024/01/31 10:10:13;;;;;;;22.00;16.08;;;;;;;;;;5007147;28;20145;-86
2024/01/31 10:12:39;;;;;;;22.25;14.80;;;;;;;;;;4994397;28;20033;-85
2024/01/31 10:15:09;;;;;;;16.67;14.65;;;;;;;;;;5008590;28;20749;-86
2024/01/31 10:17:35;;;;;;;17.40;14.80;;;;;;;;;;4997580;28;20029;-86
2024/01/31 10:20:06;;;;;;;20.92;15.43;;;;;;;;;;4996276;28;20128;-86
2024/01/31 10:22:34;;;;;;;19.13;15.50;;;;;;;;;;5027109;28;20110;-85
2024/01/31 10:24:59;;;;;;;21.75;15.13;;;;;;;;;;5009517;28;20149;-86
2024/01/31 10:27:25;;;;;;;16.17;14.48;;;;;;;;;;4993604;28;20381;-85
2024/01/31 10:29:53;;;;;;;17.63;14.80;;;;;;;;;;5011430;28;20037;-85
2024/01/31 10:32:20;;;;;;;20.83;16.75;;;;;;;;;;5013661;28;20072;-86
2024/01/31 10:34:47;;;;;;;17.13;15.20;;;;;;;;;;5020148;28;20052;-85
2024/01/31 10:37:14;;;;;;;16.27;14.27;;;;;;;;;;5015316;28;20033;-86
2024/01/31 10:39:40;;;;;;;16.13;14.50;;;;;;;;;;5010260;28;20147;-85
2024/01/31 10:42:06;;;;;;;21.95;14.70;;;;;;;;;;5031051;28;20052;-85
2024/01/31 10:44:32;;;;;;;21.35;15.18;;;;;;;;;;5006705;28;20033;-85
2024/01/31 10:46:58;;;;;;;26.52;15.73;;;;;;;;;;5012743;28;20041;-85
2024/01/31 10:49:23;;;;;;;26.70;18.05;;;;;;;;;;5011880;28;20072;-86
2024/01/31 10:51:53;;;;;;;18.17;14.70;;;;;;;;;;5025847;28;20124;-85
2024/01/31 10:54:24;;;;;;;18.80;16.42;;;;;;;;;;5028839;28;20033;-85
2024/01/31 10:56:50;;;;;;;20.83;17.70;;;;;;;;;;5020699;28;20080;-86
2024/01/31 10:59:16;;;;;;;18.23;16.25;;;;;;;;;;5019937;28;20069;-85
2024/01/31 11:01:54;;;;;;;20.42;16.48;;;;;;;;;;5009488;28;20072;-86
2024/01/31 11:04:21;;;;;;;21.00;16.10;;;;;;;;;;5011165;28;20037;-85
2024/01/31 11:06:53;;;;;;;22.17;16.20;;;;;;;;;;5009075;28;20615;-85
2024/01/31 11:09:23;;;;;;;17.70;15.82;;;;;;;;;;5014215;28;20033;-85
2024/01/31 11:12:06;;;;;;;20.98;15.95;;;;;;;;;;5016216;28;20104;-86
2024/01/31 11:14:33;;;;;;;30.08;16.20;;;;;;;;;;5011762;28;20141;-85
2024/01/31 11:17:17;;;;;;;22.50;16.48;;;;;;;;;;5008623;28;20045;-85
2024/01/31 11:20:03;;;;;;;23.88;16.15;;;;;;;;;;5037738;28;20038;-85
2024/01/31 11:22:30;;;;;;;16.92;13.90;;;;;;;;;;4990725;28;20622;-85
2024/01/31 11:24:59;;;;;;;20.70;14.82;;;;;;;;;;5016817;28;20033;-85
2024/01/31 11:27:24;;;;;;;17.30;15.50;;;;;;;;;;5014941;28;20799;-86
2024/01/31 11:29:52;;;;;;;22.05;16.00;;;;;;;;;;5011692;28;20037;-85
2024/01/31 11:32:24;;;;;;;33.88;25.70;;;;;;;;;;5022802;28;20446;-85
2024/01/31 11:35:01;;;;;;;20.63;15.60;;;;;;;;;;5035518;28;20041;-86
2024/01/31 11:37:28;;;;;;;18.92;15.02;;;;;;;;;;5019853;28;20044;-86
2024/01/31 11:39:54;;;;;;;18.27;15.30;;;;;;;;;;4990459;28;20037;-86
2024/01/31 11:42:20;;;;;;;22.20;16.15;;;;;;;;;;4999245;28;20392;-86
2024/01/31 11:44:46;;;;;;;17.13;15.32;;;;;;;;;;5027721;28;20049;-85
2024/01/31 11:47:11;;;;;;;21.98;14.95;;;;;;;;;;4981649;28;20980;-85
2024/01/31 11:49:37;;;;;;;20.05;15.00;;;;;;;;;;5012091;28;20056;-85
2024/01/31 11:52:03;;;;;;;22.42;14.73;;;;;;;;;;5024913;28;20037;-86
2024/01/31 11:54:30;;;;;;;20.67;15.13;;;;;;;;;;4996646;28;20067;-86
2024/01/31 11:56:56;;;;;;;21.55;16.67;;;;;;;;;;5012223;28;20045;-85
2024/01/31 11:59:22;;;;;;;20.95;16.58;;;;;;;;;;5014369;28;20030;-85
2024/01/31 12:01:48;;;;;;;19.60;15.02;;;;;;;;;;5007454;28;20048;-85
2024/01/31 12:04:14;;;;;;;20.65;15.68;;;;;;;;;;4996886;28;20568;-84
2024/01/31 12:06:41;;;;;;;25.13;16.75;;;;;;;;;;5012358;28;20266;-85
2024/01/31 12:09:07;;;;;;;19.23;16.30;;;;;;;;;;5011919;28;20819;-85
2024/01/31 12:11:32;;;;;;;20.30;15.93;;;;;;;;;;4978074;28;20770;-86
2024/01/31 12:13:58;;;;;;;24.50;16.83;;;;;;;;;;5021163;28;20037;-85
2024/01/31 12:16:24;;;;;;;20.20;15.23;;;;;;;;;;5024464;28;20037;-85
2024/01/31 12:19:00;;;;;;;15.93;14.23;;;;;;;;;;4974422;28;20051;-85
2024/01/31 12:21:26;;;;;;;17.92;14.98;;;;;;;;;;5007250;28;20037;-85
2024/01/31 12:23:51;;;;;;;18.13;16.17;;;;;;;;;;5007047;28;20041;-85
2024/01/31 12:26:17;;;;;;;17.75;15.52;;;;;;;;;;5031163;28;20047;-85
2024/01/31 12:28:53;;;;;;;30.10;18.88;;;;;;;;;;5025467;28;20033;-85
2024/01/31 12:31:19;;;;;;;19.00;14.27;;;;;;;;;;4996841;28;20030;-85
2024/01/31 12:33:44;;;;;;;18.75;14.55;;;;;;;;;;4994883;28;20037;-85
2024/01/31 12:36:10;;;;;;;21.55;15.13;;;;;;;;;;5021970;28;20091;-85
2024/01/31 12:38:35;;;;;;;16.77;14.95;;;;;;;;;;5007349;28;20071;-85
2024/01/31 12:41:01;;;;;;;15.35;13.75;;;;;;;;;;5021438;28;20056;-84
2024/01/31 12:43:26;;;;;;;46.55;22.80;;;;;;;;;;4983549;28;20052;-85
2024/01/31 12:45:52;;;;;;;13.48;12.13;;;;;;;;;;5007230;28;20042;-85
2024/01/31 12:48:18;;;;;;;22.80;16.55;;;;;;;;;;5026330;28;20038;-85
2024/01/31 12:50:43;;;;;;;16.35;14.63;;;;;;;;;;5010550;28;20063;-85
2024/01/31 12:53:09;;;;;;;15.25;13.55;;;;;;;;;;4990865;28;20113;-86
2024/01/31 12:55:34;;;;;;;18.40;14.43;;;;;;;;;;4993167;28;20049;-84
2024/01/31 12:58:00;;;;;;;16.20;14.55;;;;;;;;;;5022977;28;20040;-84
2024/01/31 13:00:25;;;;;;;17.30;13.48;;;;;;;;;;5000808;28;20045;-85
2024/01/31 13:02:51;;;;;;;20.30;13.85;;;;;;;;;;5023146;28;20045;-85
2024/01/31 13:05:16;;;;;;;17.92;13.82;;;;;;;;;;5011540;28;20140;-84
2024/01/31 13:07:42;;;;;;;18.17;14.57;;;;;;;;;;4993760;28;20037;-85
2024/01/31 13:10:08;;;;;;;20.40;14.82;;;;;;;;;;5015909;28;20119;-85
2024/01/31 13:12:34;;;;;;;20.80;15.25;;;;;;;;;;5023533;28;20124;-85
2024/01/31 13:14:59;;;;;;;17.48;14.05;;;;;;;;;;5023481;28;20446;-85
2024/01/31 13:17:25;;;;;;;17.52;14.70;;;;;;;;;;5009122;28;20064;-85
2024/01/31 13:19:51;;;;;;;17.88;15.20;;;;;;;;;;5008284;28;20045;-85
2024/01/31 13:22:16;;;;;;;21.25;15.55;;;;;;;;;;5023207;28;20029;-84
2024/01/31 13:24:42;;;;;;;18.52;15.80;;;;;;;;;;4975918;28;20048;-85
2024/01/31 13:27:07;;;;;;;18.83;16.60;;;;;;;;;;5024148;28;20095;-85
2024/01/31 13:29:34;;;;;;;21.08;15.95;;;;;;;;;;4970132;28;20365;-85
2024/01/31 13:32:00;;;;;;;23.60;16.38;;;;;;;;;;5020444;28;20045;-85
2024/01/31 13:34:25;;;;;;;21.60;15.75;;;;;;;;;;5010526;28;20156;-85
2024/01/31 13:36:55;;;;;;;19.55;16.52;;;;;;;;;;4990853;28;20049;-84
2024/01/31 13:39:22;;;;;;;21.45;16.90;;;;;;;;;;5001868;28;20087;-84
2024/01/31 13:41:48;;;;;;;18.85;15.40;;;;;;;;;;5016784;28;20037;-85
2024/01/31 13:44:13;;;;;;;20.58;17.23;;;;;;;;;;5011917;28;20043;-85
2024/01/31 13:46:39;;;;;;;22.48;17.02;;;;;;;;;;5009318;28;20029;-85
2024/01/31 13:49:06;;;;;;;21.33;18.08;;;;;;;;;;5001006;28;20033;-85
2024/01/31 13:51:33;;;;;;;25.67;16.35;;;;;;;;;;5004783;28;20448;-85
2024/01/31 13:53:59;;;;;;;21.27;17.52;;;;;;;;;;4995758;28;20998;-85
2024/01/31 13:56:24;;;;;;;22.23;17.10;;;;;;;;;;5021506;28;20522;-85
2024/01/31 13:58:50;;;;;;;19.80;16.75;;;;;;;;;;5008530;28;20407;-85
2024/01/31 14:01:15;;;;;;;23.50;16.80;;;;;;;;;;5001257;28;20042;-85
2024/01/31 14:03:41;;;;;;;20.42;16.05;;;;;;;;;;5009039;28;20179;-85
2024/01/31 14:06:07;;;;;;;20.17;16.65;;;;;;;;;;5020421;28;20045;-85
2024/01/31 14:08:32;;;;;;;24.25;17.70;;;;;;;;;;5022450;28;20631;-88
2024/01/31 14:10:58;;;;;;;22.58;17.70;;;;;;;;;;4996928;28;20034;-91